Time;durP1;ratioP1;P1;durP2;ratioP2;P2;SDS_P1;SDS_P2;PMS_P1;PMS_P2;Temp;Humidity;BMP_temperature;BMP_pressure;BME280_temperature;BME280_humidity;BME280_pressure;Samples;Min_cycle;Max_cycle;Signal;HPM_P1;HPM_P2
2021/04/07 00:00:24;;;;;;;8.63;4.90;;;0.10;99.90;;;;;;5032368;28;20057;-66
2021/04/07 00:02:52;;;;;;;7.72;5.07;;;0.10;99.90;;;;;;5030405;28;20041;-66
2021/04/07 00:05:34;;;;;;;6.05;4.15;;;0.10;99.90;;;;;;5031338;28;20491;-67
2021/04/07 00:08:03;;;;;;;7.78;4.35;;;0.10;99.90;;;;;;5029214;28;20058;-67
2021/04/07 00:10:34;;;;;;;6.68;4.50;;;0.00;99.90;;;;;;5031934;28;20057;-67
2021/04/07 00:13:01;;;;;;;9.43;4.18;;;0.00;99.90;;;;;;5030304;28;20053;-67
2021/04/07 00:15:29;;;;;;;6.65;3.78;;;-0.10;99.90;;;;;;5030525;28;20389;-67
2021/04/07 00:17:57;;;;;;;6.45;3.92;;;-0.10;99.90;;;;;;5031294;28;20049;-67
2021/04/07 00:20:26;;;;;;;7.22;4.15;;;-0.10;99.90;;;;;;5030130;28;20498;-67
2021/04/07 00:22:53;;;;;;;6.25;4.05;;;-0.10;99.90;;;;;;5030999;28;20053;-67
2021/04/07 00:25:22;;;;;;;8.05;4.60;;;-0.20;99.90;;;;;;5030706;28;20107;-67
2021/04/07 00:27:57;;;;;;;6.30;3.72;;;-0.20;99.90;;;;;;5021428;28;20495;-67
2021/04/07 00:30:28;;;;;;;8.52;4.63;;;-0.20;99.90;;;;;;5028666;28;20068;-67
2021/04/07 00:32:55;;;;;;;6.25;4.43;;;-0.20;99.90;;;;;;5029243;28;20064;-66
2021/04/07 00:35:23;;;;;;;8.43;4.78;;;-0.30;99.90;;;;;;5029989;28;20099;-67
2021/04/07 00:37:51;;;;;;;5.78;4.05;;;-0.40;99.90;;;;;;5030843;28;20415;-67
2021/04/07 00:40:19;;;;;;;6.22;4.25;;;-0.30;99.90;;;;;;5026416;28;20042;-67
2021/04/07 00:42:48;;;;;;;6.93;4.63;;;-0.40;99.90;;;;;;5021407;28;20088;-66
2021/04/07 00:45:16;;;;;;;8.32;5.55;;;-0.40;99.90;;;;;;5031339;28;20092;-67
2021/04/07 00:47:43;;;;;;;8.90;5.50;;;-0.40;99.90;;;;;;5029007;28;20049;-67
2021/04/07 00:50:12;;;;;;;8.13;5.10;;;-0.40;99.90;;;;;;5031183;28;20455;-67
2021/04/07 00:52:39;;;;;;;9.55;5.75;;;-0.40;99.90;;;;;;5027382;28;20562;-67
2021/04/07 00:55:14;;;;;;;8.35;5.38;;;-0.40;99.90;;;;;;5027782;28;20076;-67
2021/04/07 00:57:41;;;;;;;10.10;5.45;;;-0.40;99.90;;;;;;5029036;28;20424;-67
2021/04/07 01:00:10;;;;;;;10.55;6.55;;;-0.40;99.90;;;;;;5026372;28;20054;-67
2021/04/07 01:02:38;;;;;;;9.43;5.80;;;-0.40;99.90;;;;;;5027976;28;20766;-67
2021/04/07 01:05:08;;;;;;;8.98;5.70;;;-0.40;99.90;;;;;;5030506;28;20065;-67
2021/04/07 01:07:36;;;;;;;9.93;6.00;;;-0.40;99.90;;;;;;5030120;28;20053;-67
2021/04/07 01:10:09;;;;;;;9.73;6.38;;;-0.30;99.90;;;;;;5029919;28;20129;-67
2021/04/07 01:12:36;;;;;;;;;;;-0.30;99.90;;;;;;5031004;28;20049;-67
2021/04/07 01:15:08;;;;;;;14.82;5.95;;;-0.30;99.90;;;;;;5030133;28;19925;-67
2021/04/07 01:17:35;;;;;;;12.25;6.57;;;-0.30;99.90;;;;;;5030412;28;20372;-67
2021/04/07 01:20:08;;;;;;;8.23;5.82;;;-0.20;99.90;;;;;;5028456;28;20056;-67
2021/04/07 01:22:36;;;;;;;11.27;6.70;;;-0.20;99.90;;;;;;5013710;28;20107;-67
2021/04/07 01:25:07;;;;;;;11.68;6.57;;;-0.20;99.90;;;;;;5009749;28;20046;-67
2021/04/07 01:27:38;;;;;;;9.63;6.45;;;-0.10;99.90;;;;;;5025087;28;20095;-67
2021/04/07 01:30:11;;;;;;;13.50;7.13;;;-0.10;99.90;;;;;;5030338;28;20045;-67
2021/04/07 01:32:39;;;;;;;12.48;6.95;;;-0.10;99.90;;;;;;5028237;28;20045;-67
2021/04/07 01:35:08;;;;;;;10.85;6.53;;;-0.10;99.90;;;;;;5019123;28;20518;-67
2021/04/07 01:37:36;;;;;;;12.18;7.00;;;-0.20;99.90;;;;;;5019387;28;20045;-67
2021/04/07 01:40:07;;;;;;;9.32;6.22;;;-0.20;99.90;;;;;;5027317;28;20057;-67
2021/04/07 01:42:39;;;;;;;12.02;6.80;;;-0.20;99.90;;;;;;5027036;28;20053;-67
2021/04/07 01:45:07;;;;;;;10.05;6.70;;;-0.20;99.90;;;;;;5029207;28;20131;-67
2021/04/07 01:47:34;;;;;;;11.35;6.38;;;-0.10;99.90;;;;;;5030469;28;20053;-67
2021/04/07 01:50:04;;;;;;;10.73;6.50;;;-0.10;99.90;;;;;;5030154;28;20081;-67
2021/04/07 01:52:31;;;;;;;9.57;6.57;;;-0.20;99.90;;;;;;5030370;28;20111;-67
2021/04/07 01:54:59;;;;;;;13.15;6.47;;;-0.20;99.90;;;;;;5026360;28;20053;-68
2021/04/07 01:57:26;;;;;;;11.80;6.80;;;-0.20;99.90;;;;;;5029513;28;20053;-67
2021/04/07 01:59:53;;;;;;;10.68;7.15;;;-0.20;99.90;;;;;;5028664;28;20045;-67
2021/04/07 02:02:20;;;;;;;11.20;6.75;;;-0.30;99.90;;;;;;5029152;28;20053;-67
2021/04/07 02:04:47;;;;;;;14.18;8.55;;;-0.30;99.90;;;;;;5027672;28;20137;-67
2021/04/07 02:07:16;;;;;;;12.65;7.10;;;-0.30;99.90;;;;;;5029671;28;20100;-67
2021/04/07 02:09:44;;;;;;;11.18;6.90;;;-0.40;99.90;;;;;;5022288;28;20054;-67
2021/04/07 02:12:11;;;;;;;12.93;7.13;;;-0.40;99.90;;;;;;5014209;28;20045;-68
2021/04/07 02:14:38;;;;;;;10.45;7.07;;;-0.40;99.90;;;;;;5028085;28;20286;-68
2021/04/07 02:17:06;;;;;;;13.18;7.07;;;-0.40;99.90;;;;;;5033409;28;20061;-68
2021/04/07 02:19:35;;;;;;;10.77;7.40;;;-0.40;99.90;;;;;;5031999;28;20057;-68
2021/04/07 02:22:14;;;;;;;11.57;7.20;;;-0.40;99.90;;;;;;5016859;28;20050;-67
2021/04/07 02:24:44;;;;;;;15.52;7.32;;;-0.30;99.90;;;;;;5023728;28;20100;-68
2021/04/07 02:27:15;;;;;;;11.73;7.20;;;-0.30;99.90;;;;;;5024905;28;20479;-68
2021/04/07 02:29:43;;;;;;;11.98;6.55;;;-0.30;99.90;;;;;;5030060;28;20046;-67
2021/04/07 02:32:10;;;;;;;12.52;7.25;;;-0.30;99.90;;;;;;5031053;28;20431;-68
2021/04/07 02:34:42;;;;;;;12.65;7.40;;;-0.30;99.90;;;;;;5031693;28;20104;-67
2021/04/07 02:37:14;;;;;;;12.27;7.60;;;-0.20;99.90;;;;;;5030518;28;20240;-67
2021/04/07 02:39:41;;;;;;;12.02;7.60;;;-0.30;99.90;;;;;;5030258;28;20544;-68
2021/04/07 02:42:09;;;;;;;14.05;8.25;;;-0.30;99.90;;;;;;5032598;28;20498;-67
2021/04/07 02:44:37;;;;;;;14.43;7.93;;;-0.30;99.90;;;;;;5031038;28;20424;-68
2021/04/07 02:47:04;;;;;;;13.05;7.97;;;-0.30;99.90;;;;;;5030987;28;20049;-67
2021/04/07 02:49:32;;;;;;;13.95;7.65;;;-0.30;99.90;;;;;;5030858;28;20045;-67
2021/04/07 02:51:59;;;;;;;13.93;8.63;;;-0.50;99.90;;;;;;5030698;28;20061;-67
2021/04/07 02:54:26;;;;;;;14.88;8.48;;;-0.50;99.90;;;;;;5029923;28;20791;-67
2021/04/07 02:56:53;;;;;;;15.20;8.25;;;-0.60;99.90;;;;;;5032507;28;20050;-67
2021/04/07 02:59:20;;;;;;;17.73;8.90;;;-0.70;99.90;;;;;;5032811;28;20404;-67
2021/04/07 03:01:47;;;;;;;15.88;9.48;;;-0.60;99.90;;;;;;5046177;28;20065;-67
2021/04/07 03:04:14;;;;;;;16.63;8.88;;;-0.60;99.90;;;;;;5030167;28;20448;-67
2021/04/07 03:06:42;;;;;;;16.38;9.05;;;-0.70;99.90;;;;;;5021920;28;20590;-67
2021/04/07 03:09:10;;;;;;;17.20;8.93;;;-0.60;99.90;;;;;;5031259;28;20073;-67
2021/04/07 03:11:37;;;;;;;18.75;8.80;;;-0.60;99.90;;;;;;5031382;28;20800;-67
2021/04/07 03:14:04;;;;;;;17.35;9.35;;;-0.60;99.90;;;;;;5047981;28;20054;-67
2021/04/07 03:16:32;;;;;;;14.85;8.10;;;-0.60;99.90;;;;;;5018548;28;20363;-67
2021/04/07 03:19:00;;;;;;;15.18;8.25;;;-0.60;99.90;;;;;;5012135;28;20057;-67
2021/04/07 03:21:27;;;;;;;14.55;8.20;;;-0.60;99.90;;;;;;5040240;28;20065;-67
2021/04/07 03:23:54;;;;;;;15.77;8.65;;;-0.60;99.90;;;;;;5030544;28;20049;-67
2021/04/07 03:26:22;;;;;;;14.18;7.85;;;-0.60;99.90;;;;;;5025872;28;20099;-67
2021/04/07 03:28:49;;;;;;;15.48;8.13;;;-0.50;99.90;;;;;;5029163;28;20413;-67
2021/04/07 03:31:16;;;;;;;15.88;8.23;;;-0.50;99.90;;;;;;5031938;28;20068;-67
2021/04/07 03:33:43;;;;;;;17.05;8.32;;;-0.60;99.90;;;;;;5047406;28;20049;-67
2021/04/07 03:36:10;;;;;;;16.48;8.70;;;-0.60;99.90;;;;;;5032695;28;20467;-67
2021/04/07 03:38:38;;;;;;;16.27;8.68;;;-0.60;99.90;;;;;;5031310;28;20053;-67
2021/04/07 03:41:05;;;;;;;15.38;8.10;;;-0.60;99.90;;;;;;5032983;28;20446;-67
2021/04/07 03:43:32;;;;;;;15.65;8.18;;;-0.60;99.90;;;;;;5030977;28;20050;-67
2021/04/07 03:45:59;;;;;;;16.38;8.10;;;-0.50;99.90;;;;;;5027173;28;20499;-67
2021/04/07 03:48:29;;;;;;;15.73;8.50;;;-0.50;99.90;;;;;;5031440;28;20057;-68
2021/04/07 03:50:57;;;;;;;21.15;8.85;;;-0.50;99.90;;;;;;5031092;28;20054;-68
2021/04/07 03:53:24;;;;;;;17.05;8.63;;;-0.60;99.90;;;;;;5030954;28;20080;-68
2021/04/07 03:55:53;;;;;;;19.38;8.40;;;-0.60;99.90;;;;;;5026844;28;20058;-68
2021/04/07 03:58:21;;;;;;;14.20;8.40;;;-0.60;99.90;;;;;;5030571;28;20064;-68
2021/04/07 04:00:48;;;;;;;18.40;8.50;;;-0.60;99.90;;;;;;5038525;28;20080;-68
2021/04/07 04:03:16;;;;;;;16.17;8.48;;;-0.60;99.90;;;;;;5030126;28;20111;-68
2021/04/07 04:05:43;;;;;;;16.48;8.57;;;-0.60;99.90;;;;;;5024119;28;20046;-68
2021/04/07 04:08:10;;;;;;;16.73;8.60;;;-0.70;99.90;;;;;;5030491;28;20061;-68
2021/04/07 04:10:37;;;;;;;17.25;8.55;;;-0.70;99.90;;;;;;5026668;28;20044;-68
2021/04/07 04:13:06;;;;;;;14.70;8.45;;;-0.80;99.90;;;;;;5024307;28;20053;-68
2021/04/07 04:15:34;;;;;;;16.40;8.82;;;-0.80;99.90;;;;;;5032116;28;20053;-68
2021/04/07 04:18:01;;;;;;;18.73;8.88;;;-0.90;99.90;;;;;;5025909;28;20103;-67
2021/04/07 04:20:28;;;;;;;17.60;8.30;;;-0.90;99.90;;;;;;5029172;28;20558;-67
2021/04/07 04:22:54;;;;;;;18.77;8.90;;;-0.90;99.90;;;;;;5031965;28;20057;-67
2021/04/07 04:25:23;;;;;;;14.75;8.48;;;-0.90;99.90;;;;;;5028924;28;20495;-67
2021/04/07 04:27:50;;;;;;;15.80;8.90;;;-0.90;99.90;;;;;;5013029;28;20508;-67
2021/04/07 04:30:21;;;;;;;15.80;8.40;;;-1.00;99.90;;;;;;5010445;28;20054;-67
2021/04/07 04:32:49;;;;;;;20.27;9.80;;;-1.00;99.90;;;;;;5025930;28;20054;-68
2021/04/07 04:35:17;;;;;;;14.73;8.55;;;-1.00;99.90;;;;;;5029069;28;20276;-68
2021/04/07 04:37:46;;;;;;;18.00;8.18;;;-1.10;99.90;;;;;;5030266;28;20137;-68
2021/04/07 04:40:14;;;;;;;16.73;8.93;;;-1.10;99.90;;;;;;5029417;28;20111;-68
2021/04/07 04:42:42;;;;;;;18.45;8.98;;;-1.10;99.90;;;;;;5031128;28;20507;-68
2021/04/07 04:45:10;;;;;;;17.08;9.10;;;-1.00;99.90;;;;;;5030812;28;20057;-68
2021/04/07 04:47:37;;;;;;;20.60;9.30;;;-1.10;99.90;;;;;;5030439;28;20156;-68
2021/04/07 04:50:08;;;;;;;16.10;8.10;;;-1.10;99.90;;;;;;5031140;28;20042;-68
2021/04/07 04:52:36;;;;;;;16.42;9.18;;;-1.10;99.90;;;;;;5012315;28;20042;-68
2021/04/07 04:55:05;;;;;;;16.13;9.13;;;-1.00;99.90;;;;;;5014777;28;20066;-68
2021/04/07 04:57:33;;;;;;;19.15;8.35;;;-1.00;99.90;;;;;;5029356;28;20068;-68
2021/04/07 04:59:59;;;;;;;19.15;9.30;;;-1.00;99.90;;;;;;5027747;28;20053;-67
2021/04/07 05:02:27;;;;;;;15.23;8.13;;;-1.00;99.90;;;;;;5030471;28;20045;-67
2021/04/07 05:04:55;;;;;;;14.60;8.40;;;-1.00;99.90;;;;;;5031156;28;20042;-68
2021/04/07 05:07:22;;;;;;;15.32;8.30;;;-1.00;99.90;;;;;;5028819;28;20509;-69
2021/04/07 05:09:49;;;;;;;15.82;8.70;;;-1.00;99.90;;;;;;5030705;28;20067;-68
2021/04/07 05:12:17;;;;;;;15.73;9.13;;;-0.90;99.90;;;;;;5027712;28;20045;-68
2021/04/07 05:14:45;;;;;;;15.85;8.70;;;-0.90;99.90;;;;;;5028479;28;20073;-69
2021/04/07 05:17:12;;;;;;;14.77;8.65;;;-0.90;99.90;;;;;;5023614;28;20051;-68
2021/04/07 05:19:39;;;;;;;14.63;8.88;;;-0.90;99.90;;;;;;5025774;28;20049;-68
2021/04/07 05:22:06;;;;;;;20.00;9.60;;;-0.80;99.90;;;;;;5020802;28;20052;-68
2021/04/07 05:24:34;;;;;;;15.68;8.93;;;-0.80;99.90;;;;;;5020768;28;20065;-68
2021/04/07 05:27:01;;;;;;;22.63;8.82;;;-0.70;99.90;;;;;;5028162;28;20048;-69
2021/04/07 05:29:28;;;;;;;14.77;8.52;;;-0.60;99.90;;;;;;5022332;28;20512;-69
2021/04/07 05:31:58;;;;;;;15.15;8.55;;;-0.60;99.90;;;;;;5025163;28;20080;-68
2021/04/07 05:34:25;;;;;;;20.20;10.40;;;-0.50;99.90;;;;;;5029153;28;20459;-67
2021/04/07 05:36:54;;;;;;;15.95;8.68;;;-0.50;99.90;;;;;;5030758;28;20493;-68
2021/04/07 05:39:22;;;;;;;17.13;8.73;;;-0.40;99.90;;;;;;5024973;28;20049;-68
2021/04/07 05:41:49;;;;;;;16.75;9.38;;;-0.40;99.90;;;;;;5024151;28;20053;-68
2021/04/07 05:44:15;;;;;;;13.75;8.25;;;-0.30;99.90;;;;;;5049472;28;20140;-68
2021/04/07 05:46:42;;;;;;;16.50;8.23;;;-0.30;99.90;;;;;;5027950;28;20166;-68
2021/04/07 05:49:09;;;;;;;14.10;8.55;;;-0.30;99.90;;;;;;5025531;28;20076;-69
2021/04/07 05:51:36;;;;;;;14.73;8.15;;;-0.20;99.90;;;;;;5025817;28;20075;-69
2021/04/07 05:54:03;;;;;;;14.85;7.80;;;-0.20;99.90;;;;;;5027711;28;20389;-68
2021/04/07 05:56:31;;;;;;;14.07;8.10;;;-0.20;99.90;;;;;;5031937;28;20065;-69
2021/04/07 05:58:59;;;;;;;12.82;7.97;;;-0.10;99.90;;;;;;5032553;28;20427;-68
2021/04/07 06:01:25;;;;;;;16.55;7.85;;;-0.10;99.90;;;;;;5032239;28;20123;-69
2021/04/07 06:03:52;;;;;;;12.68;8.38;;;-0.10;99.90;;;;;;5029465;28;20054;-69
2021/04/07 06:06:20;;;;;;;18.52;8.13;;;-0.10;99.90;;;;;;5032707;28;20052;-69
2021/04/07 06:08:48;;;;;;;14.15;8.00;;;0.00;99.90;;;;;;5027374;28;20500;-67
2021/04/07 06:11:19;;;;;;;13.52;7.93;;;0.00;99.90;;;;;;5047838;28;20045;-67
2021/04/07 06:13:49;;;;;;;15.35;7.85;;;0.00;99.90;;;;;;5032967;28;20052;-67
2021/04/07 06:16:16;;;;;;;16.40;8.05;;;0.00;99.90;;;;;;5037161;28;20041;-68
2021/04/07 06:18:43;;;;;;;14.27;7.75;;;0.20;99.90;;;;;;5028377;28;20462;-67
2021/04/07 06:21:12;;;;;;;15.05;7.65;;;0.20;99.90;;;;;;5031377;28;20147;-68
2021/04/07 06:23:39;;;;;;;13.05;6.93;;;0.30;99.90;;;;;;5033141;28;20053;-68
2021/04/07 06:26:06;;;;;;;14.02;7.80;;;0.30;99.90;;;;;;5029142;28;20120;-68
2021/04/07 06:28:33;;;;;;;15.38;8.57;;;0.30;99.90;;;;;;5031559;28;20103;-68
2021/04/07 06:31:01;;;;;;;14.80;7.28;;;0.30;99.90;;;;;;5032117;28;20492;-68
2021/04/07 06:33:33;;;;;;;13.93;7.50;;;0.30;99.90;;;;;;5028770;28;20081;-68
2021/04/07 06:36:11;;;;;;;12.55;7.95;;;0.30;99.90;;;;;;5017193;28;20133;-68
2021/04/07 06:38:38;;;;;;;16.08;9.13;;;0.30;99.90;;;;;;5012862;28;20149;-67
2021/04/07 06:41:09;;;;;;;13.27;8.07;;;0.20;99.90;;;;;;5026374;28;20046;-67
2021/04/07 06:43:36;;;;;;;13.95;7.45;;;0.20;99.90;;;;;;5027271;28;20392;-68
2021/04/07 06:46:08;;;;;;;17.58;8.07;;;0.20;99.90;;;;;;5027923;28;20052;-68
2021/04/07 06:48:35;;;;;;;15.05;7.70;;;0.30;99.90;;;;;;5025596;28;20466;-68
2021/04/07 06:51:04;;;;;;;18.42;7.43;;;0.20;99.90;;;;;;5027599;28;20057;-68
2021/04/07 06:53:32;;;;;;;17.40;8.20;;;0.10;99.90;;;;;;5023583;28;20129;-67
2021/04/07 06:55:59;;;;;;;13.75;7.80;;;0.00;99.90;;;;;;5027702;28;20138;-67
2021/04/07 06:58:26;;;;;;;18.85;8.32;;;0.10;99.90;;;;;;5027055;28;20058;-67
2021/04/07 07:00:53;;;;;;;17.48;8.38;;;0.10;99.90;;;;;;5030117;28;20053;-67
2021/04/07 07:03:20;;;;;;;15.50;6.88;;;0.10;99.90;;;;;;5027263;28;20361;-67
2021/04/07 07:05:49;;;;;;;18.23;8.40;;;0.20;99.90;;;;;;5026821;28;20068;-67
2021/04/07 07:08:36;;;;;;;13.63;7.60;;;0.40;99.90;;;;;;5029179;28;20408;-67
2021/04/07 07:11:14;;;;;;;16.48;8.32;;;0.70;99.90;;;;;;5032200;28;20526;-68
2021/04/07 07:13:41;;;;;;;12.77;7.57;;;0.90;99.90;;;;;;5032025;28;20054;-67
2021/04/07 07:16:10;;;;;;;14.07;7.82;;;1.00;99.90;;;;;;5038988;28;20045;-67
2021/04/07 07:18:42;;;;;;;15.93;7.97;;;1.00;99.90;;;;;;5021694;28;20057;-67
2021/04/07 07:21:16;;;;;;;13.30;7.28;;;1.10;99.90;;;;;;5023414;28;20071;-66
2021/04/07 07:23:46;;;;;;;15.75;6.97;;;1.00;99.90;;;;;;5031817;28;20065;-67
2021/04/07 07:26:15;;;;;;;13.50;8.00;;;1.00;99.90;;;;;;5028111;28;20065;-67
2021/04/07 07:28:53;;;;;;;12.52;7.60;;;0.80;99.90;;;;;;5030973;28;20562;-67
2021/04/07 07:31:26;;;;;;;17.15;7.20;;;0.70;99.90;;;;;;5027453;28;20041;-67
2021/04/07 07:33:54;;;;;;;16.00;7.13;;;0.70;99.90;;;;;;5031928;28;20522;-67
2021/04/07 07:36:22;;;;;;;14.70;7.93;;;0.60;99.90;;;;;;5030782;28;20100;-67
2021/04/07 07:38:54;;;;;;;14.45;7.28;;;0.50;99.90;;;;;;5020680;28;20049;-68
2021/04/07 07:41:35;;;;;;;13.82;7.28;;;0.60;99.90;;;;;;5032165;28;20046;-68
2021/04/07 07:44:17;;;;;;;13.32;7.13;;;0.60;99.90;;;;;;5030499;28;20054;-68
2021/04/07 07:46:46;;;;;;;15.35;7.15;;;0.80;99.90;;;;;;5031428;28;20053;-68
2021/04/07 07:49:19;;;;;;;11.93;6.93;;;0.80;99.90;;;;;;5031764;28;20049;-68
2021/04/07 07:51:47;;;;;;;15.93;7.30;;;1.00;99.90;;;;;;5030628;28;20048;-68
2021/04/07 07:54:16;;;;;;;13.52;7.25;;;1.20;99.90;;;;;;5028808;28;20041;-68
2021/04/07 07:56:43;;;;;;;14.38;7.00;;;1.40;99.90;;;;;;5029799;28;20045;-67
2021/04/07 07:59:10;;;;;;;12.27;7.28;;;1.40;99.90;;;;;;5032088;28;20060;-67
2021/04/07 08:01:44;;;;;;;12.52;6.57;;;1.60;99.90;;;;;;5030284;28;20061;-67
2021/04/07 08:04:11;;;;;;;10.05;6.18;;;1.80;99.90;;;;;;5029898;28;20522;-67
2021/04/07 08:06:39;;;;;;;10.85;6.65;;;2.00;99.90;;;;;;5029603;28;20156;-68
2021/04/07 08:09:06;;;;;;;10.13;7.03;;;2.00;99.90;;;;;;5030231;28;20107;-68
2021/04/07 08:11:36;;;;;;;12.95;6.82;;;2.00;99.90;;;;;;5030924;28;20053;-68
2021/04/07 08:14:04;;;;;;;11.43;6.57;;;2.00;99.90;;;;;;5030973;28;20103;-68
2021/04/07 08:16:33;;;;;;;13.52;7.25;;;2.10;99.90;;;;;;5020410;28;20054;-68
2021/04/07 08:19:02;;;;;;;11.05;7.63;;;2.10;99.90;;;;;;5019076;28;20091;-68
2021/04/07 08:21:30;;;;;;;10.23;7.00;;;2.20;99.90;;;;;;5030201;28;20053;-67
2021/04/07 08:24:00;;;;;;;12.35;7.10;;;2.30;99.90;;;;;;5027240;28;20076;-67
2021/04/07 08:26:30;;;;;;;10.38;7.00;;;2.30;99.90;;;;;;5021157;28;20161;-67
2021/04/07 08:28:57;;;;;;;12.55;7.57;;;2.50;99.90;;;;;;5031586;28;20038;-68
2021/04/07 08:31:27;;;;;;;11.45;7.50;;;2.50;99.90;;;;;;5029675;28;20346;-68
2021/04/07 08:33:57;;;;;;;11.07;7.03;;;2.50;99.90;;;;;;5044629;28;20045;-68
2021/04/07 08:36:30;;;;;;;10.98;7.28;;;2.40;99.90;;;;;;5030998;28;20080;-68
2021/04/07 08:39:08;;;;;;;12.30;7.65;;;2.40;99.90;;;;;;5029528;28;20103;-68
2021/04/07 08:41:35;;;;;;;10.05;7.50;;;2.40;99.90;;;;;;5030126;28;20428;-68
2021/04/07 08:44:04;;;;;;;13.73;7.53;;;2.50;99.90;;;;;;5030591;28;20050;-68
2021/04/07 08:46:47;;;;;;;12.93;7.65;;;2.40;99.90;;;;;;5029821;28;20416;-67
2021/04/07 08:49:33;;;;;;;10.60;7.68;;;2.50;99.90;;;;;;5030894;28;20052;-67
2021/04/07 08:52:11;;;;;;;12.20;7.85;;;2.40;99.90;;;;;;5026934;28;20046;-68
2021/04/07 08:54:49;;;;;;;11.35;7.13;;;2.40;99.90;;;;;;5030078;28;20103;-68
2021/04/07 08:57:28;;;;;;;11.75;7.95;;;2.50;99.90;;;;;;5029268;28;20049;-67
2021/04/07 08:59:56;;;;;;;10.30;7.03;;;2.60;99.90;;;;;;5030750;28;20111;-67
2021/04/07 09:02:24;;;;;;;10.73;7.20;;;3.00;99.90;;;;;;5030980;28;20048;-68
2021/04/07 09:05:08;;;;;;;11.20;7.22;;;3.20;99.90;;;;;;5029516;28;20045;-68
2021/04/07 09:07:40;;;;;;;10.93;7.40;;;3.20;99.90;;;;;;5045692;28;20448;-68
2021/04/07 09:10:18;;;;;;;14.48;8.10;;;2.90;99.90;;;;;;5028739;28;20136;-68
2021/04/07 09:12:47;;;;;;;10.18;7.32;;;3.20;99.90;;;;;;5029498;28;20065;-69
2021/04/07 09:15:19;;;;;;;14.77;8.65;;;3.20;99.90;;;;;;5029453;28;20049;-68
2021/04/07 09:17:56;;;;;;;12.00;7.22;;;3.10;99.90;;;;;;5009832;28;20060;-68
2021/04/07 09:20:46;;;;;;;9.75;8.57;;;3.20;99.90;;;;;;5011429;28;20053;-69
2021/04/07 09:23:29;;;;;;;12.38;8.50;;;3.10;99.90;;;;;;5025650;28;20404;-68
2021/04/07 09:26:06;;;;;;;14.77;7.80;;;2.60;99.90;;;;;;5027544;28;20107;-67
2021/04/07 09:28:45;;;;;;;12.73;7.82;;;2.30;99.90;;;;;;5010308;28;20092;-68
2021/04/07 09:31:20;;;;;;;11.07;6.70;;;2.20;99.90;;;;;;5025696;28;20037;-68
2021/04/07 09:33:49;;;;;;;11.18;6.95;;;2.20;99.90;;;;;;5018031;28;20471;-68
2021/04/07 09:36:18;;;;;;;14.05;6.97;;;2.30;99.90;;;;;;5026656;28;20140;-68
2021/04/07 09:38:50;;;;;;;13.13;6.68;;;2.60;99.90;;;;;;5022927;28;20049;-69
2021/04/07 09:41:25;;;;;;;8.20;7.00;;;3.20;99.90;;;;;;5027569;28;20128;-68
2021/04/07 09:43:55;;;;;;;13.20;7.15;;;3.50;99.90;;;;;;5030110;28;20138;-67
2021/04/07 09:46:23;;;;;;;7.85;6.57;;;3.50;99.90;;;;;;5028539;28;20555;-67
2021/04/07 09:49:05;;;;;;;13.23;8.52;;;3.60;99.90;;;;;;5028983;28;20050;-66
2021/04/07 09:51:37;;;;;;;12.55;7.00;;;3.50;99.90;;;;;;5027757;28;20057;-67
2021/04/07 09:54:13;;;;;;;11.48;6.50;;;3.30;99.90;;;;;;5022731;28;20496;-68
2021/04/07 09:56:59;;;;;;;13.00;6.60;;;3.20;99.90;;;;;;5030035;28;20072;-67
2021/04/07 09:59:33;;;;;;;9.95;6.85;;;3.50;99.90;;;;;;5030629;28;20061;-68
2021/04/07 10:02:04;;;;;;;8.90;7.18;;;3.90;99.90;;;;;;5029828;28;20050;-69
2021/04/07 10:04:34;;;;;;;7.87;7.07;;;4.10;99.90;;;;;;5028525;28;20056;-67
2021/04/07 10:07:13;;;;;;;8.25;7.40;;;4.30;99.90;;;;;;5030069;28;20103;-69
2021/04/07 10:09:42;;;;;;;8.75;7.15;;;3.90;99.90;;;;;;5028585;28;20049;-68
2021/04/07 10:12:10;;;;;;;12.52;7.40;;;3.80;99.90;;;;;;5027467;28;20049;-67
2021/04/07 10:14:38;;;;;;;10.07;7.50;;;3.80;99.90;;;;;;5034236;28;20044;-67
2021/04/07 10:17:17;;;;;;;9.32;7.40;;;3.90;99.90;;;;;;5029366;28;20061;-68
2021/04/07 10:19:44;;;;;;;9.10;8.15;;;3.90;99.90;;;;;;5030115;28;20061;-67
2021/04/07 10:22:17;;;;;;;7.90;7.10;;;3.90;99.90;;;;;;5024904;28;20500;-68
2021/04/07 10:24:48;;;;;;;9.73;7.47;;;3.70;99.90;;;;;;5029944;28;20115;-67
2021/04/07 10:27:21;;;;;;;10.23;7.78;;;3.90;99.90;;;;;;5030103;28;20043;-67
2021/04/07 10:29:49;;;;;;;9.70;7.17;;;3.70;99.90;;;;;;5033508;28;20099;-67
2021/04/07 10:32:18;;;;;;;7.63;6.75;;;3.60;99.90;;;;;;5033741;28;20799;-68
2021/04/07 10:34:46;;;;;;;8.38;6.85;;;3.40;99.90;;;;;;5032703;28;20076;-68
2021/04/07 10:37:18;;;;;;;7.97;6.30;;;3.40;99.90;;;;;;5033053;28;20041;-68
2021/04/07 10:39:45;;;;;;;9.40;7.20;;;3.40;99.90;;;;;;5023102;28;20057;-68
2021/04/07 10:42:22;;;;;;;10.88;7.20;;;3.30;99.90;;;;;;5045204;28;20441;-67
2021/04/07 10:45:02;;;;;;;8.05;6.72;;;3.20;99.90;;;;;;5032344;28;20364;-68
2021/04/07 10:47:37;;;;;;;12.23;7.53;;;3.00;99.90;;;;;;5020249;28;20042;-68
2021/04/07 10:50:06;;;;;;;7.15;6.45;;;3.00;99.90;;;;;;5030164;28;20126;-68
2021/04/07 10:52:41;;;;;;;8.43;6.53;;;2.90;99.90;;;;;;5031670;28;20052;-68
2021/04/07 10:55:19;;;;;;;11.38;6.40;;;2.90;99.90;;;;;;5031797;28;20492;-68
2021/04/07 10:57:50;;;;;;;8.75;6.50;;;2.80;99.90;;;;;;5026395;28;20532;-68
2021/04/07 11:00:30;;;;;;;11.32;6.47;;;2.90;99.90;;;;;;5027086;28;20053;-68
2021/04/07 11:02:58;;;;;;;8.40;6.88;;;2.90;99.90;;;;;;5025970;28;20057;-68
2021/04/07 11:05:41;;;;;;;7.22;6.40;;;2.90;99.90;;;;;;5031324;28;20061;-68
2021/04/07 11:08:10;;;;;;;9.27;6.40;;;2.80;99.90;;;;;;5032855;28;20073;-68
2021/04/07 11:10:42;;;;;;;7.90;6.47;;;2.70;99.90;;;;;;5027703;28;20077;-68
2021/04/07 11:13:10;;;;;;;;;;;2.70;99.90;;;;;;5053625;28;20408;-68
2021/04/07 11:15:38;;;;;;;7.40;6.18;;;3.00;99.90;;;;;;5029563;28;19921;-68
2021/04/07 11:18:13;;;;;;;12.23;6.30;;;3.20;99.90;;;;;;5030601;28;20148;-70
2021/04/07 11:20:42;;;;;;;8.43;6.60;;;3.20;99.90;;;;;;5031954;28;20049;-68
2021/04/07 11:23:10;;;;;;;8.40;6.53;;;3.30;99.90;;;;;;5029161;28;20048;-69
2021/04/07 11:25:39;;;;;;;10.00;6.70;;;3.10;99.90;;;;;;5032240;28;20783;-69
2021/04/07 11:28:20;;;;;;;8.98;6.75;;;2.80;99.90;;;;;;5026630;28;20084;-68
2021/04/07 11:31:24;;;;;;;9.90;6.18;;;2.80;99.90;;;;;;5031130;28;20049;-68
2021/04/07 11:33:54;;;;;;;7.85;5.88;;;3.00;99.90;;;;;;5033048;28;20049;-68
2021/04/07 11:41:58;;;;;;;11.20;5.70;;;2.40;99.90;;;;;;5069856;28;20967;-68
2021/04/07 11:44:28;;;;;;;;;;;2.20;99.90;;;;;;5070430;28;20506;-68
2021/04/07 11:46:56;;;;;;;10.68;5.70;;;2.10;99.90;;;;;;5066641;28;20027;-68
2021/04/07 11:49:23;;;;;;;8.15;5.10;;;2.10;99.90;;;;;;5057709;28;20044;-68
2021/04/07 11:51:50;;;;;;;7.20;5.10;;;2.10;99.90;;;;;;5065584;28;20161;-69
2021/04/07 11:54:18;;;;;;;10.63;5.38;;;1.90;99.90;;;;;;5066038;28;20774;-68
2021/04/07 11:56:47;;;;;;;7.72;5.30;;;1.70;99.90;;;;;;5068513;28;20081;-68
2021/04/07 11:59:19;;;;;;;9.68;5.50;;;1.50;99.90;;;;;;5068563;28;20052;-67
2021/04/07 12:01:48;;;;;;;10.00;5.55;;;1.50;99.90;;;;;;5069993;28;20516;-66
2021/04/07 12:04:16;;;;;;;8.20;5.13;;;1.70;99.90;;;;;;5070213;28;20384;-68
2021/04/07 12:06:44;;;;;;;8.30;5.10;;;2.00;99.90;;;;;;5069232;28;20072;-67
2021/04/07 12:09:11;;;;;;;9.15;5.60;;;2.30;99.90;;;;;;5059228;28;20045;-67
2021/04/07 12:11:38;;;;;;;10.90;5.68;;;2.70;99.90;;;;;;5068380;28;20147;-67
2021/04/07 12:14:07;;;;;;;11.48;6.30;;;2.80;99.90;;;;;;5068344;28;20049;-67
2021/04/07 12:16:36;;;;;;;9.13;5.50;;;2.80;99.90;;;;;;5061217;28;20059;-67
2021/04/07 12:19:05;;;;;;;8.70;6.03;;;2.70;99.90;;;;;;5035919;28;20050;-71
2021/04/07 12:21:32;;;;;;;11.70;6.55;;;2.70;99.90;;;;;;5029180;28;20050;-67
2021/04/07 12:24:01;;;;;;;8.30;5.78;;;2.60;99.90;;;;;;5034092;28;20041;-67
2021/04/07 12:26:28;;;;;;;10.05;5.90;;;2.70;99.90;;;;;;5027623;28;20061;-69
2021/04/07 12:28:56;;;;;;;8.65;6.05;;;2.70;99.90;;;;;;5031547;28;20073;-68
2021/04/07 12:31:24;;;;;;;10.27;5.95;;;2.70;99.90;;;;;;5032305;28;20046;-68
2021/04/07 12:33:55;;;;;;;12.52;7.25;;;2.80;99.90;;;;;;5035547;28;20061;-67
2021/04/07 12:36:31;;;;;;;8.88;6.05;;;2.90;99.90;;;;;;5034619;28;20092;-67
2021/04/07 12:39:02;;;;;;;10.07;7.28;;;2.80;99.90;;;;;;5016634;28;20062;-68
2021/04/07 12:44:09;;;;;;;8.45;6.35;;;2.90;99.90;;;;;;5034597;28;20397;-68
2021/04/07 12:46:39;;;;;;;12.23;6.95;;;2.70;99.90;;;;;;5034193;28;20037;-68
2021/04/07 12:49:06;;;;;;;13.32;6.70;;;2.60;99.90;;;;;;5031537;28;20049;-66
2021/04/07 12:51:37;;;;;;;10.68;7.00;;;2.40;99.90;;;;;;5034114;28;20397;-68
2021/04/07 12:54:05;;;;;;;10.13;6.72;;;2.50;99.90;;;;;;5035700;28;20048;-67
2021/04/07 12:56:32;;;;;;;9.88;5.93;;;2.60;99.90;;;;;;5032990;28;20045;-68
2021/04/07 12:59:03;;;;;;;9.85;6.03;;;2.80;99.90;;;;;;5036535;28;20381;-67
2021/04/07 13:01:30;;;;;;;9.77;6.20;;;2.80;99.90;;;;;;5035230;28;20057;-69
2021/04/07 13:03:58;;;;;;;8.75;6.20;;;2.90;99.90;;;;;;5035517;28;20046;-68
2021/04/07 13:06:25;;;;;;;9.75;6.53;;;3.00;99.90;;;;;;5023532;28;20048;-68